sensor_id;sensor_type;location;lat;lon;timestamp;P1;durP1;ratioP1;P2;durP2;ratioP2
2570;SDS011;1295;51.130;6.732;2023-07-24T00:02:24;55.80;;;8.83;;
2570;SDS011;1295;51.130;6.732;2023-07-24T00:04:51;54.00;;;7.83;;
2570;SDS011;1295;51.130;6.732;2023-07-24T00:07:16;52.43;;;8.63;;
2570;SDS011;1295;51.130;6.732;2023-07-24T00:09:42;54.57;;;7.50;;
2570;SDS011;1295;51.130;6.732;2023-07-24T00:12:08;53.17;;;7.77;;
2570;SDS011;1295;51.130;6.732;2023-07-24T00:14:34;59.80;;;8.70;;
2570;SDS011;1295;51.130;6.732;2023-07-24T00:16:59;55.63;;;7.93;;
2570;SDS011;1295;51.130;6.732;2023-07-24T00:19:26;56.70;;;7.63;;
2570;SDS011;1295;51.130;6.732;2023-07-24T00:21:51;54.13;;;6.17;;
2570;SDS011;1295;51.130;6.732;2023-07-24T00:24:17;53.80;;;8.20;;
2570;SDS011;1295;51.130;6.732;2023-07-24T00:26:43;52.90;;;7.13;;
2570;SDS011;1295;51.130;6.732;2023-07-24T00:29:08;54.80;;;10.27;;
2570;SDS011;1295;51.130;6.732;2023-07-24T00:31:35;53.17;;;8.77;;
2570;SDS011;1295;51.130;6.732;2023-07-24T00:34:01;54.10;;;10.30;;
2570;SDS011;1295;51.130;6.732;2023-07-24T00:36:27;56.50;;;9.97;;
2570;SDS011;1295;51.130;6.732;2023-07-24T00:38:52;56.20;;;10.50;;
2570;SDS011;1295;51.130;6.732;2023-07-24T00:41:18;52.50;;;8.07;;
2570;SDS011;1295;51.130;6.732;2023-07-24T00:43:43;57.73;;;9.20;;
2570;SDS011;1295;51.130;6.732;2023-07-24T00:46:09;53.47;;;9.60;;
2570;SDS011;1295;51.130;6.732;2023-07-24T00:48:35;54.00;;;10.40;;
2570;SDS011;1295;51.130;6.732;2023-07-24T00:51:00;54.40;;;9.00;;
2570;SDS011;1295;51.130;6.732;2023-07-24T00:53:26;53.77;;;8.53;;
2570;SDS011;1295;51.130;6.732;2023-07-24T00:55:51;53.53;;;11.03;;
2570;SDS011;1295;51.130;6.732;2023-07-24T00:58:17;53.40;;;9.63;;
2570;SDS011;1295;51.130;6.732;2023-07-24T01:00:43;54.33;;;11.93;;
2570;SDS011;1295;51.130;6.732;2023-07-24T01:03:08;54.67;;;11.20;;
2570;SDS011;1295;51.130;6.732;2023-07-24T01:05:34;56.80;;;12.70;;
2570;SDS011;1295;51.130;6.732;2023-07-24T01:08:00;54.70;;;11.30;;
2570;SDS011;1295;51.130;6.732;2023-07-24T01:10:25;55.00;;;10.43;;
2570;SDS011;1295;51.130;6.732;2023-07-24T01:12:54;55.77;;;9.50;;
2570;SDS011;1295;51.130;6.732;2023-07-24T01:15:24;52.77;;;8.93;;
2570;SDS011;1295;51.130;6.732;2023-07-24T01:17:48;56.57;;;8.77;;
2570;SDS011;1295;51.130;6.732;2023-07-24T01:20:13;55.77;;;8.23;;
2570;SDS011;1295;51.130;6.732;2023-07-24T01:22:39;53.20;;;7.50;;
2570;SDS011;1295;51.130;6.732;2023-07-24T01:27:57;57.97;;;9.43;;
2570;SDS011;1295;51.130;6.732;2023-07-24T01:30:22;55.70;;;7.63;;
2570;SDS011;1295;51.130;6.732;2023-07-24T01:32:48;56.63;;;7.10;;
2570;SDS011;1295;51.130;6.732;2023-07-24T01:35:14;55.50;;;6.97;;
2570;SDS011;1295;51.130;6.732;2023-07-24T01:37:39;55.50;;;5.70;;
2570;SDS011;1295;51.130;6.732;2023-07-24T01:40:06;53.90;;;6.73;;
2570;SDS011;1295;51.130;6.732;2023-07-24T01:42:33;63.50;;;7.13;;
2570;SDS011;1295;51.130;6.732;2023-07-24T01:44:59;54.70;;;6.70;;
2570;SDS011;1295;51.130;6.732;2023-07-24T01:47:24;54.20;;;6.63;;
2570;SDS011;1295;51.130;6.732;2023-07-24T01:49:50;56.60;;;6.63;;
2570;SDS011;1295;51.130;6.732;2023-07-24T01:52:16;54.47;;;7.70;;
2570;SDS011;1295;51.130;6.732;2023-07-24T01:54:41;53.13;;;6.70;;
2570;SDS011;1295;51.130;6.732;2023-07-24T01:57:07;54.67;;;6.10;;
2570;SDS011;1295;51.130;6.732;2023-07-24T01:59:33;52.77;;;5.80;;
2570;SDS011;1295;51.130;6.732;2023-07-24T02:01:58;55.43;;;7.07;;
2570;SDS011;1295;51.130;6.732;2023-07-24T02:04:24;55.30;;;7.77;;
2570;SDS011;1295;51.130;6.732;2023-07-24T02:06:50;53.87;;;7.23;;
2570;SDS011;1295;51.130;6.732;2023-07-24T02:09:17;54.77;;;6.50;;
2570;SDS011;1295;51.130;6.732;2023-07-24T02:11:44;54.77;;;7.40;;
2570;SDS011;1295;51.130;6.732;2023-07-24T02:14:11;56.50;;;6.83;;
2570;SDS011;1295;51.130;6.732;2023-07-24T02:16:35;59.00;;;6.67;;
2570;SDS011;1295;51.130;6.732;2023-07-24T02:19:01;54.83;;;7.70;;
2570;SDS011;1295;51.130;6.732;2023-07-24T02:21:27;53.33;;;6.40;;
2570;SDS011;1295;51.130;6.732;2023-07-24T02:23:52;55.57;;;7.67;;
2570;SDS011;1295;51.130;6.732;2023-07-24T02:26:18;56.87;;;8.47;;
2570;SDS011;1295;51.130;6.732;2023-07-24T02:28:43;56.30;;;8.20;;
2570;SDS011;1295;51.130;6.732;2023-07-24T02:31:09;53.90;;;8.13;;
2570;SDS011;1295;51.130;6.732;2023-07-24T02:33:35;54.80;;;8.80;;
2570;SDS011;1295;51.130;6.732;2023-07-24T02:36:00;57.53;;;8.83;;
2570;SDS011;1295;51.130;6.732;2023-07-24T02:38:26;56.23;;;7.40;;
2570;SDS011;1295;51.130;6.732;2023-07-24T02:40:52;55.80;;;8.53;;
2570;SDS011;1295;51.130;6.732;2023-07-24T02:43:24;58.17;;;8.87;;
2570;SDS011;1295;51.130;6.732;2023-07-24T02:45:50;55.70;;;9.50;;
2570;SDS011;1295;51.130;6.732;2023-07-24T02:48:16;54.07;;;7.13;;
2570;SDS011;1295;51.130;6.732;2023-07-24T02:50:42;53.90;;;6.40;;
2570;SDS011;1295;51.130;6.732;2023-07-24T02:53:07;55.30;;;6.63;;
2570;SDS011;1295;51.130;6.732;2023-07-24T02:55:33;56.73;;;6.90;;
2570;SDS011;1295;51.130;6.732;2023-07-24T02:57:59;57.90;;;7.67;;
2570;SDS011;1295;51.130;6.732;2023-07-24T03:00:25;53.60;;;7.03;;
2570;SDS011;1295;51.130;6.732;2023-07-24T03:02:52;60.30;;;7.10;;
2570;SDS011;1295;51.130;6.732;2023-07-24T03:05:16;54.73;;;7.27;;
2570;SDS011;1295;51.130;6.732;2023-07-24T03:07:42;55.97;;;7.27;;
2570;SDS011;1295;51.130;6.732;2023-07-24T03:10:08;58.77;;;7.80;;
2570;SDS011;1295;51.130;6.732;2023-07-24T03:12:34;60.00;;;7.10;;
2570;SDS011;1295;51.130;6.732;2023-07-24T03:15:00;56.63;;;8.20;;
2570;SDS011;1295;51.130;6.732;2023-07-24T03:17:25;58.63;;;8.90;;
2570;SDS011;1295;51.130;6.732;2023-07-24T03:19:51;55.40;;;8.37;;
2570;SDS011;1295;51.130;6.732;2023-07-24T03:22:17;55.87;;;9.73;;
2570;SDS011;1295;51.130;6.732;2023-07-24T03:24:42;58.03;;;8.37;;
2570;SDS011;1295;51.130;6.732;2023-07-24T03:27:08;59.70;;;8.87;;
2570;SDS011;1295;51.130;6.732;2023-07-24T03:29:33;56.83;;;9.30;;
2570;SDS011;1295;51.130;6.732;2023-07-24T03:31:59;58.83;;;7.90;;
2570;SDS011;1295;51.130;6.732;2023-07-24T03:34:25;56.00;;;9.10;;
2570;SDS011;1295;51.130;6.732;2023-07-24T03:36:50;61.80;;;9.00;;
2570;SDS011;1295;51.130;6.732;2023-07-24T03:39:16;55.90;;;8.07;;
2570;SDS011;1295;51.130;6.732;2023-07-24T03:41:42;57.07;;;8.17;;
2570;SDS011;1295;51.130;6.732;2023-07-24T03:44:08;56.13;;;8.53;;
2570;SDS011;1295;51.130;6.732;2023-07-24T03:46:34;54.50;;;10.20;;
2570;SDS011;1295;51.130;6.732;2023-07-24T03:49:00;54.47;;;9.50;;
2570;SDS011;1295;51.130;6.732;2023-07-24T03:51:25;55.30;;;9.70;;
2570;SDS011;1295;51.130;6.732;2023-07-24T03:53:52;56.33;;;10.20;;
2570;SDS011;1295;51.130;6.732;2023-07-24T03:56:17;58.63;;;11.87;;
2570;SDS011;1295;51.130;6.732;2023-07-24T03:58:43;57.60;;;10.13;;
2570;SDS011;1295;51.130;6.732;2023-07-24T04:01:09;59.07;;;9.23;;
2570;SDS011;1295;51.130;6.732;2023-07-24T04:03:35;56.50;;;8.80;;
2570;SDS011;1295;51.130;6.732;2023-07-24T04:06:00;57.27;;;10.63;;
2570;SDS011;1295;51.130;6.732;2023-07-24T04:08:25;55.57;;;10.30;;
2570;SDS011;1295;51.130;6.732;2023-07-24T04:10:51;57.47;;;10.80;;
2570;SDS011;1295;51.130;6.732;2023-07-24T04:13:17;59.80;;;9.93;;
2570;SDS011;1295;51.130;6.732;2023-07-24T04:15:42;61.43;;;26.27;;
2570;SDS011;1295;51.130;6.732;2023-07-24T04:18:08;64.23;;;22.57;;
2570;SDS011;1295;51.130;6.732;2023-07-24T04:20:34;60.77;;;17.17;;
2570;SDS011;1295;51.130;6.732;2023-07-24T04:22:59;63.40;;;32.07;;
2570;SDS011;1295;51.130;6.732;2023-07-24T04:25:25;61.53;;;20.10;;
2570;SDS011;1295;51.130;6.732;2023-07-24T04:27:50;72.53;;;26.27;;
2570;SDS011;1295;51.130;6.732;2023-07-24T04:30:16;63.40;;;33.40;;
2570;SDS011;1295;51.130;6.732;2023-07-24T04:32:42;65.40;;;27.77;;
2570;SDS011;1295;51.130;6.732;2023-07-24T04:35:08;65.90;;;34.80;;
2570;SDS011;1295;51.130;6.732;2023-07-24T04:37:33;59.83;;;22.40;;
2570;SDS011;1295;51.130;6.732;2023-07-24T04:40:00;60.27;;;23.73;;
2570;SDS011;1295;51.130;6.732;2023-07-24T04:42:25;63.73;;;27.77;;
2570;SDS011;1295;51.130;6.732;2023-07-24T04:44:52;60.40;;;27.23;;
2570;SDS011;1295;51.130;6.732;2023-07-24T04:47:18;60.77;;;22.93;;
2570;SDS011;1295;51.130;6.732;2023-07-24T04:49:43;59.97;;;18.63;;
2570;SDS011;1295;51.130;6.732;2023-07-24T04:52:09;63.37;;;22.83;;
2570;SDS011;1295;51.130;6.732;2023-07-24T04:54:35;62.93;;;21.90;;
2570;SDS011;1295;51.130;6.732;2023-07-24T04:57:02;61.30;;;22.77;;
2570;SDS011;1295;51.130;6.732;2023-07-24T04:59:28;67.80;;;23.30;;
2570;SDS011;1295;51.130;6.732;2023-07-24T05:01:53;60.40;;;22.70;;
2570;SDS011;1295;51.130;6.732;2023-07-24T05:04:19;54.30;;;10.40;;
2570;SDS011;1295;51.130;6.732;2023-07-24T05:06:45;60.50;;;17.17;;
2570;SDS011;1295;51.130;6.732;2023-07-24T05:09:11;59.47;;;22.70;;
2570;SDS011;1295;51.130;6.732;2023-07-24T05:11:37;56.07;;;13.77;;
2570;SDS011;1295;51.130;6.732;2023-07-24T05:14:03;70.47;;;32.97;;
2570;SDS011;1295;51.130;6.732;2023-07-24T05:16:28;62.77;;;20.43;;
2570;SDS011;1295;51.130;6.732;2023-07-24T05:18:54;52.40;;;11.10;;
2570;SDS011;1295;51.130;6.732;2023-07-24T05:21:20;56.47;;;12.07;;
2570;SDS011;1295;51.130;6.732;2023-07-24T05:23:45;60.20;;;12.77;;
2570;SDS011;1295;51.130;6.732;2023-07-24T05:26:11;57.10;;;8.50;;
2570;SDS011;1295;51.130;6.732;2023-07-24T05:28:36;60.50;;;10.73;;
2570;SDS011;1295;51.130;6.732;2023-07-24T05:31:03;56.23;;;9.90;;
2570;SDS011;1295;51.130;6.732;2023-07-24T05:33:28;61.83;;;11.23;;
2570;SDS011;1295;51.130;6.732;2023-07-24T05:35:58;58.00;;;9.93;;
2570;SDS011;1295;51.130;6.732;2023-07-24T05:38:23;58.80;;;11.20;;
2570;SDS011;1295;51.130;6.732;2023-07-24T05:40:53;57.90;;;10.33;;
2570;SDS011;1295;51.130;6.732;2023-07-24T05:43:14;54.90;;;8.73;;
2570;SDS011;1295;51.130;6.732;2023-07-24T05:45:40;56.77;;;10.00;;
2570;SDS011;1295;51.130;6.732;2023-07-24T05:48:05;60.63;;;13.20;;
2570;SDS011;1295;51.130;6.732;2023-07-24T05:50:31;60.40;;;13.83;;
2570;SDS011;1295;51.130;6.732;2023-07-24T05:52:56;68.77;;;22.30;;
2570;SDS011;1295;51.130;6.732;2023-07-24T05:55:22;62.60;;;26.97;;
2570;SDS011;1295;51.130;6.732;2023-07-24T05:57:48;59.43;;;21.90;;
2570;SDS011;1295;51.130;6.732;2023-07-24T06:00:13;65.80;;;34.77;;
2570;SDS011;1295;51.130;6.732;2023-07-24T06:02:40;57.30;;;17.23;;
2570;SDS011;1295;51.130;6.732;2023-07-24T06:05:05;57.37;;;17.10;;
2570;SDS011;1295;51.130;6.732;2023-07-24T06:07:32;60.20;;;19.60;;
2570;SDS011;1295;51.130;6.732;2023-07-24T06:09:58;65.13;;;22.40;;
2570;SDS011;1295;51.130;6.732;2023-07-24T06:12:41;55.77;;;15.47;;
2570;SDS011;1295;51.130;6.732;2023-07-24T06:15:07;60.50;;;16.60;;
2570;SDS011;1295;51.130;6.732;2023-07-24T06:17:32;54.03;;;17.97;;
2570;SDS011;1295;51.130;6.732;2023-07-24T06:19:58;58.07;;;14.70;;
2570;SDS011;1295;51.130;6.732;2023-07-24T06:22:35;54.00;;;11.23;;
2570;SDS011;1295;51.130;6.732;2023-07-24T06:25:00;59.23;;;21.30;;
2570;SDS011;1295;51.130;6.732;2023-07-24T06:27:26;59.07;;;16.87;;
2570;SDS011;1295;51.130;6.732;2023-07-24T06:29:51;62.23;;;17.37;;
2570;SDS011;1295;51.130;6.732;2023-07-24T06:32:17;55.80;;;13.30;;
2570;SDS011;1295;51.130;6.732;2023-07-24T06:34:43;58.00;;;15.13;;
2570;SDS011;1295;51.130;6.732;2023-07-24T06:37:08;56.57;;;13.13;;
2570;SDS011;1295;51.130;6.732;2023-07-24T06:39:34;54.60;;;9.50;;
2570;SDS011;1295;51.130;6.732;2023-07-24T06:42:00;60.77;;;21.20;;
2570;SDS011;1295;51.130;6.732;2023-07-24T06:44:26;56.80;;;12.43;;
2570;SDS011;1295;51.130;6.732;2023-07-24T06:46:52;63.10;;;40.60;;
2570;SDS011;1295;51.130;6.732;2023-07-24T06:49:17;64.57;;;36.97;;
2570;SDS011;1295;51.130;6.732;2023-07-24T06:51:43;55.73;;;17.30;;
2570;SDS011;1295;51.130;6.732;2023-07-24T06:54:08;53.37;;;9.50;;
2570;SDS011;1295;51.130;6.732;2023-07-24T06:56:34;62.97;;;17.73;;
2570;SDS011;1295;51.130;6.732;2023-07-24T06:59:00;58.80;;;11.13;;
2570;SDS011;1295;51.130;6.732;2023-07-24T07:01:26;57.60;;;11.67;;
2570;SDS011;1295;51.130;6.732;2023-07-24T07:03:52;54.90;;;11.50;;
2570;SDS011;1295;51.130;6.732;2023-07-24T07:06:17;56.30;;;11.80;;
2570;SDS011;1295;51.130;6.732;2023-07-24T07:08:43;57.20;;;9.23;;
2570;SDS011;1295;51.130;6.732;2023-07-24T07:11:08;67.20;;;22.80;;
2570;SDS011;1295;51.130;6.732;2023-07-24T07:13:35;53.60;;;8.10;;
2570;SDS011;1295;51.130;6.732;2023-07-24T07:16:01;53.03;;;8.00;;
2570;SDS011;1295;51.130;6.732;2023-07-24T07:18:26;58.40;;;13.73;;
2570;SDS011;1295;51.130;6.732;2023-07-24T07:20:53;57.97;;;14.60;;
2570;SDS011;1295;51.130;6.732;2023-07-24T07:23:18;58.07;;;17.00;;
2570;SDS011;1295;51.130;6.732;2023-07-24T07:25:43;56.77;;;10.80;;
2570;SDS011;1295;51.130;6.732;2023-07-24T07:28:09;55.27;;;12.70;;
2570;SDS011;1295;51.130;6.732;2023-07-24T07:30:34;55.50;;;10.10;;
2570;SDS011;1295;51.130;6.732;2023-07-24T07:33:00;53.77;;;8.37;;
2570;SDS011;1295;51.130;6.732;2023-07-24T07:35:26;55.20;;;9.47;;
2570;SDS011;1295;51.130;6.732;2023-07-24T07:37:51;55.40;;;9.10;;
2570;SDS011;1295;51.130;6.732;2023-07-24T07:40:17;58.90;;;13.43;;
2570;SDS011;1295;51.130;6.732;2023-07-24T07:42:43;55.30;;;10.43;;
2570;SDS011;1295;51.130;6.732;2023-07-24T07:45:09;57.33;;;16.40;;
2570;SDS011;1295;51.130;6.732;2023-07-24T07:47:34;57.93;;;11.47;;
2570;SDS011;1295;51.130;6.732;2023-07-24T07:50:00;58.33;;;15.33;;
2570;SDS011;1295;51.130;6.732;2023-07-24T07:52:26;55.67;;;12.70;;
2570;SDS011;1295;51.130;6.732;2023-07-24T07:54:51;54.20;;;8.07;;
2570;SDS011;1295;51.130;6.732;2023-07-24T07:57:17;53.10;;;6.93;;
2570;SDS011;1295;51.130;6.732;2023-07-24T07:59:43;50.93;;;12.60;;
2570;SDS011;1295;51.130;6.732;2023-07-24T08:02:08;63.70;;;16.60;;
2570;SDS011;1295;51.130;6.732;2023-07-24T08:04:34;55.03;;;9.47;;
2570;SDS011;1295;51.130;6.732;2023-07-24T08:06:59;59.77;;;12.40;;
2570;SDS011;1295;51.130;6.732;2023-07-24T08:09:25;56.23;;;8.57;;
2570;SDS011;1295;51.130;6.732;2023-07-24T08:11:51;54.20;;;8.93;;
2570;SDS011;1295;51.130;6.732;2023-07-24T08:14:17;52.80;;;7.20;;
2570;SDS011;1295;51.130;6.732;2023-07-24T08:16:43;53.37;;;7.20;;
2570;SDS011;1295;51.130;6.732;2023-07-24T08:19:08;56.63;;;9.23;;
2570;SDS011;1295;51.130;6.732;2023-07-24T08:21:34;52.10;;;9.97;;
2570;SDS011;1295;51.130;6.732;2023-07-24T08:23:59;51.57;;;7.30;;
2570;SDS011;1295;51.130;6.732;2023-07-24T08:26:25;54.90;;;11.10;;
2570;SDS011;1295;51.130;6.732;2023-07-24T08:28:51;54.37;;;8.97;;
2570;SDS011;1295;51.130;6.732;2023-07-24T08:31:17;54.40;;;9.80;;
2570;SDS011;1295;51.130;6.732;2023-07-24T08:33:43;54.43;;;9.23;;
2570;SDS011;1295;51.130;6.732;2023-07-24T08:36:08;57.60;;;8.63;;
2570;SDS011;1295;51.130;6.732;2023-07-24T08:38:35;54.10;;;9.30;;
2570;SDS011;1295;51.130;6.732;2023-07-24T08:41:01;53.73;;;7.70;;
2570;SDS011;1295;51.130;6.732;2023-07-24T08:43:28;55.73;;;9.83;;
2570;SDS011;1295;51.130;6.732;2023-07-24T08:45:54;53.37;;;6.90;;
2570;SDS011;1295;51.130;6.732;2023-07-24T08:48:19;51.67;;;7.07;;
2570;SDS011;1295;51.130;6.732;2023-07-24T08:50:46;57.27;;;8.90;;
2570;SDS011;1295;51.130;6.732;2023-07-24T08:53:12;56.10;;;9.30;;
2570;SDS011;1295;51.130;6.732;2023-07-24T08:55:37;56.43;;;7.87;;
2570;SDS011;1295;51.130;6.732;2023-07-24T08:58:03;55.53;;;9.10;;
2570;SDS011;1295;51.130;6.732;2023-07-24T09:00:28;56.23;;;9.77;;
2570;SDS011;1295;51.130;6.732;2023-07-24T09:02:54;56.63;;;12.10;;
2570;SDS011;1295;51.130;6.732;2023-07-24T09:05:20;54.10;;;9.23;;
2570;SDS011;1295;51.130;6.732;2023-07-24T09:07:46;55.70;;;10.37;;
2570;SDS011;1295;51.130;6.732;2023-07-24T09:10:12;56.87;;;12.20;;
2570;SDS011;1295;51.130;6.732;2023-07-24T09:12:38;59.43;;;11.37;;
2570;SDS011;1295;51.130;6.732;2023-07-24T09:15:04;56.67;;;12.00;;
2570;SDS011;1295;51.130;6.732;2023-07-24T09:17:31;53.97;;;7.53;;
2570;SDS011;1295;51.130;6.732;2023-07-24T09:19:57;58.00;;;8.40;;
2570;SDS011;1295;51.130;6.732;2023-07-24T09:22:23;52.77;;;7.73;;
2570;SDS011;1295;51.130;6.732;2023-07-24T09:24:52;57.20;;;11.30;;
2570;SDS011;1295;51.130;6.732;2023-07-24T09:27:19;64.83;;;13.60;;
2570;SDS011;1295;51.130;6.732;2023-07-24T09:29:45;58.90;;;13.60;;
2570;SDS011;1295;51.130;6.732;2023-07-24T09:34:45;57.67;;;14.70;;
2570;SDS011;1295;51.130;6.732;2023-07-24T09:37:11;58.37;;;10.80;;
2570;SDS011;1295;51.130;6.732;2023-07-24T09:39:36;56.80;;;10.37;;
2570;SDS011;1295;51.130;6.732;2023-07-24T09:42:03;58.60;;;12.00;;
2570;SDS011;1295;51.130;6.732;2023-07-24T09:44:30;56.03;;;9.00;;
2570;SDS011;1295;51.130;6.732;2023-07-24T09:46:55;55.40;;;11.00;;
2570;SDS011;1295;51.130;6.732;2023-07-24T09:49:20;56.23;;;10.37;;
2570;SDS011;1295;51.130;6.732;2023-07-24T09:51:46;60.90;;;10.03;;
2570;SDS011;1295;51.130;6.732;2023-07-24T09:54:15;54.47;;;10.20;;
2570;SDS011;1295;51.130;6.732;2023-07-24T09:56:41;54.87;;;10.20;;
2570;SDS011;1295;51.130;6.732;2023-07-24T09:59:07;53.60;;;9.87;;
2570;SDS011;1295;51.130;6.732;2023-07-24T10:01:32;54.63;;;7.97;;
2570;SDS011;1295;51.130;6.732;2023-07-24T10:03:59;55.10;;;10.00;;
2570;SDS011;1295;51.130;6.732;2023-07-24T10:06:24;53.57;;;7.57;;
2570;SDS011;1295;51.130;6.732;2023-07-24T10:08:50;55.53;;;8.27;;
2570;SDS011;1295;51.130;6.732;2023-07-24T10:11:16;54.90;;;8.10;;
2570;SDS011;1295;51.130;6.732;2023-07-24T10:13:42;55.20;;;9.90;;
2570;SDS011;1295;51.130;6.732;2023-07-24T10:16:07;52.93;;;6.33;;
2570;SDS011;1295;51.130;6.732;2023-07-24T10:18:34;51.10;;;4.87;;
2570;SDS011;1295;51.130;6.732;2023-07-24T10:23:42;52.20;;;6.10;;
2570;SDS011;1295;51.130;6.732;2023-07-24T10:26:07;54.30;;;6.67;;
2570;SDS011;1295;51.130;6.732;2023-07-24T10:28:34;52.27;;;5.80;;
2570;SDS011;1295;51.130;6.732;2023-07-24T10:31:00;53.40;;;5.83;;
2570;SDS011;1295;51.130;6.732;2023-07-24T10:33:29;52.90;;;7.93;;
2570;SDS011;1295;51.130;6.732;2023-07-24T10:35:53;53.37;;;5.63;;
2570;SDS011;1295;51.130;6.732;2023-07-24T10:38:17;52.77;;;7.00;;
2570;SDS011;1295;51.130;6.732;2023-07-24T10:40:45;54.10;;;6.67;;
2570;SDS011;1295;51.130;6.732;2023-07-24T10:43:09;53.50;;;6.97;;
2570;SDS011;1295;51.130;6.732;2023-07-24T10:45:38;55.00;;;8.13;;
2570;SDS011;1295;51.130;6.732;2023-07-24T10:48:08;52.20;;;6.40;;
2570;SDS011;1295;51.130;6.732;2023-07-24T10:50:36;54.00;;;6.20;;
2570;SDS011;1295;51.130;6.732;2023-07-24T10:53:01;51.60;;;4.57;;
2570;SDS011;1295;51.130;6.732;2023-07-24T10:55:27;52.40;;;6.30;;
2570;SDS011;1295;51.130;6.732;2023-07-24T10:57:53;52.77;;;5.63;;
2570;SDS011;1295;51.130;6.732;2023-07-24T11:00:18;52.60;;;5.50;;
2570;SDS011;1295;51.130;6.732;2023-07-24T11:02:44;49.50;;;4.93;;
2570;SDS011;1295;51.130;6.732;2023-07-24T11:05:09;54.50;;;5.60;;
2570;SDS011;1295;51.130;6.732;2023-07-24T11:07:35;53.70;;;5.40;;
2570;SDS011;1295;51.130;6.732;2023-07-24T11:10:01;53.70;;;5.10;;
2570;SDS011;1295;51.130;6.732;2023-07-24T11:12:26;52.57;;;4.87;;
2570;SDS011;1295;51.130;6.732;2023-07-24T11:14:52;51.43;;;4.47;;
2570;SDS011;1295;51.130;6.732;2023-07-24T11:17:19;54.27;;;6.23;;
2570;SDS011;1295;51.130;6.732;2023-07-24T11:19:45;52.40;;;5.20;;
2570;SDS011;1295;51.130;6.732;2023-07-24T11:22:11;51.63;;;4.87;;
2570;SDS011;1295;51.130;6.732;2023-07-24T11:24:42;52.13;;;5.67;;
2570;SDS011;1295;51.130;6.732;2023-07-24T11:27:10;48.67;;;6.30;;
2570;SDS011;1295;51.130;6.732;2023-07-24T11:29:35;52.13;;;6.50;;
2570;SDS011;1295;51.130;6.732;2023-07-24T11:32:01;56.77;;;7.80;;
2570;SDS011;1295;51.130;6.732;2023-07-24T11:34:26;53.10;;;7.40;;
2570;SDS011;1295;51.130;6.732;2023-07-24T11:36:52;53.57;;;7.30;;
2570;SDS011;1295;51.130;6.732;2023-07-24T11:39:22;59.50;;;12.00;;
2570;SDS011;1295;51.130;6.732;2023-07-24T11:41:47;56.27;;;8.33;;
2570;SDS011;1295;51.130;6.732;2023-07-24T11:44:13;69.33;;;19.57;;
2570;SDS011;1295;51.130;6.732;2023-07-24T11:46:39;52.93;;;5.40;;
2570;SDS011;1295;51.130;6.732;2023-07-24T11:49:05;54.13;;;4.70;;
2570;SDS011;1295;51.130;6.732;2023-07-24T11:51:30;54.50;;;5.67;;
2570;SDS011;1295;51.130;6.732;2023-07-24T11:54:04;54.87;;;5.63;;
2570;SDS011;1295;51.130;6.732;2023-07-24T11:56:31;56.17;;;5.43;;
2570;SDS011;1295;51.130;6.732;2023-07-24T11:58:57;54.30;;;6.00;;
2570;SDS011;1295;51.130;6.732;2023-07-24T12:01:23;51.30;;;5.30;;
2570;SDS011;1295;51.130;6.732;2023-07-24T12:03:49;54.87;;;7.40;;
2570;SDS011;1295;51.130;6.732;2023-07-24T12:06:15;55.83;;;6.90;;
2570;SDS011;1295;51.130;6.732;2023-07-24T12:08:41;55.30;;;7.43;;
2570;SDS011;1295;51.130;6.732;2023-07-24T12:11:15;54.40;;;4.60;;
2570;SDS011;1295;51.130;6.732;2023-07-24T12:13:32;53.20;;;7.43;;
2570;SDS011;1295;51.130;6.732;2023-07-24T12:15:58;50.43;;;4.30;;
2570;SDS011;1295;51.130;6.732;2023-07-24T12:18:23;52.90;;;6.83;;
2570;SDS011;1295;51.130;6.732;2023-07-24T12:20:49;52.63;;;4.80;;
2570;SDS011;1295;51.130;6.732;2023-07-24T12:23:14;53.57;;;6.20;;
2570;SDS011;1295;51.130;6.732;2023-07-24T12:25:41;62.27;;;29.37;;
2570;SDS011;1295;51.130;6.732;2023-07-24T12:28:06;63.57;;;43.37;;
2570;SDS011;1295;51.130;6.732;2023-07-24T12:30:32;62.87;;;43.93;;
2570;SDS011;1295;51.130;6.732;2023-07-24T12:32:58;55.23;;;23.07;;
2570;SDS011;1295;51.130;6.732;2023-07-24T12:35:23;51.97;;;13.13;;
2570;SDS011;1295;51.130;6.732;2023-07-24T12:37:49;52.73;;;15.07;;
2570;SDS011;1295;51.130;6.732;2023-07-24T12:40:15;56.60;;;8.93;;
2570;SDS011;1295;51.130;6.732;2023-07-24T12:42:40;50.00;;;4.10;;
2570;SDS011;1295;51.130;6.732;2023-07-24T12:45:06;51.67;;;5.07;;
2570;SDS011;1295;51.130;6.732;2023-07-24T12:47:32;53.57;;;9.30;;
2570;SDS011;1295;51.130;6.732;2023-07-24T12:49:58;54.50;;;6.47;;
2570;SDS011;1295;51.130;6.732;2023-07-24T12:52:24;52.07;;;5.40;;
2570;SDS011;1295;51.130;6.732;2023-07-24T12:54:49;50.23;;;14.50;;
2570;SDS011;1295;51.130;6.732;2023-07-24T12:57:15;51.80;;;6.40;;
2570;SDS011;1295;51.130;6.732;2023-07-24T12:59:40;52.70;;;11.67;;
2570;SDS011;1295;51.130;6.732;2023-07-24T13:02:06;55.53;;;19.80;;
2570;SDS011;1295;51.130;6.732;2023-07-24T13:04:32;52.87;;;7.70;;
2570;SDS011;1295;51.130;6.732;2023-07-24T13:06:57;52.47;;;7.20;;
2570;SDS011;1295;51.130;6.732;2023-07-24T13:09:23;51.07;;;6.27;;
2570;SDS011;1295;51.130;6.732;2023-07-24T13:11:48;50.07;;;5.60;;
2570;SDS011;1295;51.130;6.732;2023-07-24T13:14:14;51.90;;;7.40;;
2570;SDS011;1295;51.130;6.732;2023-07-24T13:16:40;50.17;;;4.87;;
2570;SDS011;1295;51.130;6.732;2023-07-24T13:19:05;55.30;;;12.60;;
2570;SDS011;1295;51.130;6.732;2023-07-24T13:21:31;52.30;;;7.40;;
2570;SDS011;1295;51.130;6.732;2023-07-24T13:23:57;50.73;;;5.57;;
2570;SDS011;1295;51.130;6.732;2023-07-24T13:26:22;51.77;;;7.80;;
2570;SDS011;1295;51.130;6.732;2023-07-24T13:28:48;52.27;;;7.30;;
2570;SDS011;1295;51.130;6.732;2023-07-24T13:31:15;54.10;;;12.43;;
2570;SDS011;1295;51.130;6.732;2023-07-24T13:33:40;53.53;;;11.80;;
2570;SDS011;1295;51.130;6.732;2023-07-24T13:36:06;52.03;;;9.00;;
2570;SDS011;1295;51.130;6.732;2023-07-24T13:38:32;53.20;;;6.23;;
2570;SDS011;1295;51.130;6.732;2023-07-24T13:40:58;56.23;;;16.73;;
2570;SDS011;1295;51.130;6.732;2023-07-24T13:43:23;54.90;;;14.10;;
2570;SDS011;1295;51.130;6.732;2023-07-24T13:45:49;51.90;;;8.60;;
2570;SDS011;1295;51.130;6.732;2023-07-24T13:48:15;51.50;;;7.83;;
2570;SDS011;1295;51.130;6.732;2023-07-24T13:50:41;52.53;;;9.67;;
2570;SDS011;1295;51.130;6.732;2023-07-24T13:53:06;53.10;;;8.83;;
2570;SDS011;1295;51.130;6.732;2023-07-24T13:55:32;49.60;;;7.07;;
2570;SDS011;1295;51.130;6.732;2023-07-24T13:57:58;49.63;;;6.43;;
2570;SDS011;1295;51.130;6.732;2023-07-24T14:00:23;52.50;;;8.00;;
2570;SDS011;1295;51.130;6.732;2023-07-24T14:02:49;58.20;;;19.20;;
2570;SDS011;1295;51.130;6.732;2023-07-24T14:05:15;51.07;;;9.10;;
2570;SDS011;1295;51.130;6.732;2023-07-24T14:07:41;49.47;;;6.23;;
2570;SDS011;1295;51.130;6.732;2023-07-24T14:10:07;56.57;;;17.67;;
2570;SDS011;1295;51.130;6.732;2023-07-24T14:12:33;49.70;;;7.10;;
2570;SDS011;1295;51.130;6.732;2023-07-24T14:14:58;51.30;;;8.40;;
2570;SDS011;1295;51.130;6.732;2023-07-24T14:17:24;49.90;;;7.90;;
2570;SDS011;1295;51.130;6.732;2023-07-24T14:19:50;52.90;;;12.37;;
2570;SDS011;1295;51.130;6.732;2023-07-24T14:22:15;51.40;;;8.33;;
2570;SDS011;1295;51.130;6.732;2023-07-24T14:24:41;51.23;;;9.10;;
2570;SDS011;1295;51.130;6.732;2023-07-24T14:27:07;48.00;;;5.90;;
2570;SDS011;1295;51.130;6.732;2023-07-24T14:29:32;50.20;;;7.70;;
2570;SDS011;1295;51.130;6.732;2023-07-24T14:31:58;55.33;;;13.50;;
2570;SDS011;1295;51.130;6.732;2023-07-24T14:34:23;56.03;;;13.57;;
2570;SDS011;1295;51.130;6.732;2023-07-24T14:36:49;51.87;;;8.20;;
2570;SDS011;1295;51.130;6.732;2023-07-24T14:39:15;52.60;;;10.13;;
2570;SDS011;1295;51.130;6.732;2023-07-24T14:41:41;55.70;;;6.63;;
2570;SDS011;1295;51.130;6.732;2023-07-24T14:44:07;51.87;;;9.27;;
2570;SDS011;1295;51.130;6.732;2023-07-24T14:46:32;53.70;;;11.23;;
2570;SDS011;1295;51.130;6.732;2023-07-24T14:48:58;51.40;;;8.40;;
2570;SDS011;1295;51.130;6.732;2023-07-24T14:51:24;51.57;;;5.43;;
2570;SDS011;1295;51.130;6.732;2023-07-24T14:53:49;53.73;;;7.57;;
2570;SDS011;1295;51.130;6.732;2023-07-24T14:56:15;52.87;;;6.40;;